Time;durP1;ratioP1;P1;durP2;ratioP2;P2;SDS_P1;SDS_P2;PMS_P1;PMS_P2;Temp;Humidity;BMP_temperature;BMP_pressure;BME280_temperature;BME280_humidity;BME280_pressure;Samples;Min_cycle;Max_cycle;Signal;HPM_P1;HPM_P2
2021/08/07 00:00:49;;;;;;;4.88;2.00;;;;;;;;;;5023021;28;20029;-76
2021/08/07 00:03:15;;;;;;;5.30;2.38;;;;;;;;;;5017880;28;20124;-76
2021/08/07 00:05:41;;;;;;;9.25;2.75;;;;;;;;;;5025675;28;20136;-76
2021/08/07 00:08:07;;;;;;;6.47;3.20;;;;;;;;;;5021913;28;20033;-76
2021/08/07 00:10:32;;;;;;;5.10;3.35;;;;;;;;;;5024656;28;20022;-76
2021/08/07 00:13:00;;;;;;;9.52;4.20;;;;;;;;;;5026268;28;20037;-76
2021/08/07 00:15:25;;;;;;;7.18;3.65;;;;;;;;;;5004396;28;20407;-76
2021/08/07 00:17:51;;;;;;;10.30;4.07;;;;;;;;;;5022834;28;20036;-76
2021/08/07 00:20:16;;;;;;;14.93;5.10;;;;;;;;;;5024444;28;20120;-76
2021/08/07 00:22:42;;;;;;;13.27;5.15;;;;;;;;;;5020688;28;20111;-76
2021/08/07 00:25:08;;;;;;;14.27;6.00;;;;;;;;;;5022654;28;20034;-76
2021/08/07 00:27:33;;;;;;;14.40;6.68;;;;;;;;;;5025455;28;20033;-75
2021/08/07 00:29:59;;;;;;;11.55;5.47;;;;;;;;;;5025417;28;20055;-75
2021/08/07 00:32:24;;;;;;;18.08;7.22;;;;;;;;;;5006667;28;20167;-76
2021/08/07 00:34:50;;;;;;;19.83;6.47;;;;;;;;;;5018719;28;20025;-76
2021/08/07 00:37:15;;;;;;;13.63;6.65;;;;;;;;;;5025852;28;20033;-76
2021/08/07 00:39:41;;;;;;;15.50;6.75;;;;;;;;;;5024120;28;20536;-77
2021/08/07 00:42:06;;;;;;;16.65;7.95;;;;;;;;;;5022227;28;20456;-76
2021/08/07 00:44:32;;;;;;;14.68;7.20;;;;;;;;;;5022213;28;20101;-76
2021/08/07 00:46:57;;;;;;;17.65;7.35;;;;;;;;;;5025653;28;20457;-75
2021/08/07 00:49:23;;;;;;;13.50;7.85;;;;;;;;;;5004653;28;20116;-76
2021/08/07 00:51:49;;;;;;;21.58;9.00;;;;;;;;;;5023344;28;20037;-75
2021/08/07 00:54:14;;;;;;;11.52;6.85;;;;;;;;;;5024118;28;20032;-75
2021/08/07 00:56:40;;;;;;;19.08;8.18;;;;;;;;;;5022193;28;20037;-76
2021/08/07 00:59:05;;;;;;;15.73;7.72;;;;;;;;;;5005504;28;20037;-76
2021/08/07 01:01:41;;;;;;;16.42;8.75;;;;;;;;;;5005351;28;20596;-75
2021/08/07 01:04:11;;;;;;;18.88;9.32;;;;;;;;;;5016242;28;20597;-76
2021/08/07 01:06:42;;;;;;;18.60;9.98;;;;;;;;;;5021104;28;20025;-76
2021/08/07 01:09:34;;;;;;;26.13;10.45;;;;;;;;;;5018755;28;20120;-76
2021/08/07 01:12:02;;;;;;;21.83;10.57;;;;;;;;;;5024045;28;20053;-76
2021/08/07 01:14:36;;;;;;;26.23;11.13;;;;;;;;;;5024077;28;20273;-76
2021/08/07 01:17:04;;;;;;;23.77;11.48;;;;;;;;;;5016599;28;20065;-76
2021/08/07 01:19:38;;;;;;;25.42;11.88;;;;;;;;;;5021303;28;20025;-75
2021/08/07 01:22:04;;;;;;;26.17;13.05;;;;;;;;;;5017068;28;20577;-75
2021/08/07 01:25:01;;;;;;;24.42;12.30;;;;;;;;;;5021709;28;20765;-75
2021/08/07 01:27:38;;;;;;;24.52;11.90;;;;;;;;;;5018858;28;20049;-76
2021/08/07 01:30:07;;;;;;;26.45;12.82;;;;;;;;;;5018458;28;20116;-76
2021/08/07 01:32:34;;;;;;;29.73;12.90;;;;;;;;;;5023258;28;20041;-76
2021/08/07 01:35:01;;;;;;;20.13;11.18;;;;;;;;;;5020742;28;20036;-77
2021/08/07 01:37:27;;;;;;;29.02;12.63;;;;;;;;;;5007386;28;20038;-75
2021/08/07 01:39:55;;;;;;;26.17;12.75;;;;;;;;;;5024466;28;20033;-76
2021/08/07 01:42:23;;;;;;;30.02;12.05;;;;;;;;;;5024936;28;20032;-75
2021/08/07 01:44:48;;;;;;;27.67;12.23;;;;;;;;;;5021729;28;20521;-75
2021/08/07 01:47:28;;;;;;;27.95;12.15;;;;;;;;;;5023243;28;20063;-76
2021/08/07 01:50:05;;;;;;;26.13;10.48;;;;;;;;;;5019390;28;20108;-76
2021/08/07 01:52:34;;;;;;;24.48;10.82;;;;;;;;;;5021860;28;20037;-76
2021/08/07 01:55:03;;;;;;;27.45;10.80;;;;;;;;;;5024308;28;20529;-75
2021/08/07 01:57:32;;;;;;;21.42;11.10;;;;;;;;;;5019463;28;20025;-75
2021/08/07 01:59:58;;;;;;;21.25;10.10;;;;;;;;;;5018187;28;20103;-75
2021/08/07 02:02:24;;;;;;;23.38;10.07;;;;;;;;;;5019089;28;20087;-76
2021/08/07 02:04:50;;;;;;;17.75;9.52;;;;;;;;;;5023552;28;20094;-76
2021/08/07 02:07:16;;;;;;;25.42;9.57;;;;;;;;;;5018101;28;20488;-75
2021/08/07 02:09:43;;;;;;;19.55;9.60;;;;;;;;;;5016181;28;20038;-76
2021/08/07 02:12:09;;;;;;;24.23;10.18;;;;;;;;;;5023478;28;20056;-75
2021/08/07 02:14:37;;;;;;;19.33;10.52;;;;;;;;;;5015875;28;20026;-76
2021/08/07 02:17:04;;;;;;;24.60;10.15;;;;;;;;;;5014247;28;20033;-75
2021/08/07 02:19:31;;;;;;;16.90;9.98;;;;;;;;;;5019304;28;20029;-77
2021/08/07 02:21:57;;;;;;;24.40;10.45;;;;;;;;;;5021078;28;20037;-76
2021/08/07 02:24:26;;;;;;;23.98;10.88;;;;;;;;;;5020252;28;20468;-76
2021/08/07 02:26:54;;;;;;;27.42;10.45;;;;;;;;;;5022767;28;20044;-76
2021/08/07 02:29:21;;;;;;;25.20;10.27;;;;;;;;;;5022349;28;20123;-75
2021/08/07 02:31:47;;;;;;;27.80;10.65;;;;;;;;;;5019348;28;20107;-75
2021/08/07 02:34:13;;;;;;;19.77;9.88;;;;;;;;;;5017462;28;20696;-75
2021/08/07 02:36:41;;;;;;;23.15;10.23;;;;;;;;;;5018831;28;20060;-75
2021/08/07 02:39:07;;;;;;;17.40;8.80;;;;;;;;;;5023852;28;20091;-75
2021/08/07 02:41:32;;;;;;;19.83;9.93;;;;;;;;;;5024311;28;20530;-75
2021/08/07 02:44:00;;;;;;;28.30;10.43;;;;;;;;;;5020773;28;20037;-76
2021/08/07 02:46:26;;;;;;;19.70;9.98;;;;;;;;;;5019477;28;20029;-75
2021/08/07 02:48:53;;;;;;;28.02;10.15;;;;;;;;;;5019574;28;20029;-75
2021/08/07 02:51:20;;;;;;;33.28;10.93;;;;;;;;;;5021939;28;20071;-76
2021/08/07 02:53:47;;;;;;;28.48;10.68;;;;;;;;;;5019006;28;20033;-75
2021/08/07 02:56:13;;;;;;;24.88;10.40;;;;;;;;;;5001029;28;20566;-77
2021/08/07 02:58:39;;;;;;;31.05;11.45;;;;;;;;;;5018820;28;20029;-75
2021/08/07 03:01:04;;;;;;;30.98;12.07;;;;;;;;;;5018604;28;20687;-75
2021/08/07 03:03:30;;;;;;;33.22;11.93;;;;;;;;;;5018819;28;20115;-75
2021/08/07 03:05:55;;;;;;;29.00;10.88;;;;;;;;;;5017603;28;20040;-75
2021/08/07 03:08:21;;;;;;;42.65;13.13;;;;;;;;;;5023246;28;20124;-76
2021/08/07 03:10:46;;;;;;;27.85;10.90;;;;;;;;;;5019407;28;20091;-76
2021/08/07 03:13:12;;;;;;;25.83;11.32;;;;;;;;;;5020163;28;20403;-76
2021/08/07 03:15:37;;;;;;;30.85;10.98;;;;;;;;;;5024251;28;20394;-74
2021/08/07 03:18:03;;;;;;;41.30;13.52;;;;;;;;;;5019535;28;20074;-77
2021/08/07 03:20:32;;;;;;;27.42;11.02;;;;;;;;;;4980329;28;20026;-76
2021/08/07 03:23:03;;;;;;;28.98;12.48;;;;;;;;;;4997327;28;20042;-75
2021/08/07 03:25:29;;;;;;;30.33;12.35;;;;;;;;;;5015926;28;20033;-75
2021/08/07 03:27:55;;;;;;;47.50;13.80;;;;;;;;;;5021945;28;20037;-75
2021/08/07 03:30:21;;;;;;;38.70;14.10;;;;;;;;;;5024114;28;20030;-76
2021/08/07 03:32:46;;;;;;;49.60;13.20;;;;;;;;;;5024389;28;20029;-76
2021/08/07 03:35:12;;;;;;;36.78;13.85;;;;;;;;;;5020207;28;20040;-75
2021/08/07 03:37:37;;;;;;;30.95;13.00;;;;;;;;;;5026487;28;20087;-75
2021/08/07 03:40:03;;;;;;;31.95;13.75;;;;;;;;;;5009311;28;20030;-75
2021/08/07 03:42:29;;;;;;;49.08;14.80;;;;;;;;;;5017725;28;20080;-76
2021/08/07 03:44:55;;;;;;;38.80;14.70;;;;;;;;;;5022225;28;20868;-76
2021/08/07 03:47:21;;;;;;;33.17;13.88;;;;;;;;;;4998887;28;20032;-75
2021/08/07 03:49:47;;;;;;;48.97;15.48;;;;;;;;;;5024294;28;20033;-75
2021/08/07 03:52:12;;;;;;;54.65;16.02;;;;;;;;;;5019783;28;20033;-75
2021/08/07 03:54:38;;;;;;;56.58;14.77;;;;;;;;;;5026540;28;20041;-75
2021/08/07 03:57:03;;;;;;;50.85;16.08;;;;;;;;;;5024648;28;20022;-75
2021/08/07 03:59:29;;;;;;;44.50;16.80;;;;;;;;;;5019670;28;20017;-75
2021/08/07 04:01:54;;;;;;;52.47;16.60;;;;;;;;;;5024206;28;20449;-76
2021/08/07 04:04:20;;;;;;;68.13;17.95;;;;;;;;;;5022667;28;20030;-76
2021/08/07 04:06:45;;;;;;;59.03;16.05;;;;;;;;;;5026872;28;20029;-76
2021/08/07 04:09:10;;;;;;;79.72;20.10;;;;;;;;;;5026248;28;20056;-76
2021/08/07 04:11:36;;;;;;;54.20;17.30;;;;;;;;;;5026846;28;20057;-76
2021/08/07 04:14:01;;;;;;;56.50;17.00;;;;;;;;;;5005205;28;20184;-76
2021/08/07 04:16:28;;;;;;;69.93;18.33;;;;;;;;;;5027622;28;20489;-75
2021/08/07 04:18:53;;;;;;;60.17;16.88;;;;;;;;;;5024425;28;20053;-75
2021/08/07 04:21:19;;;;;;;56.08;17.10;;;;;;;;;;5021785;28;20040;-76
2021/08/07 04:23:44;;;;;;;59.42;18.65;;;;;;;;;;5026085;28;20025;-75
2021/08/07 04:26:10;;;;;;;56.65;18.65;;;;;;;;;;5016904;28;20096;-76
2021/08/07 04:28:35;;;;;;;63.85;19.17;;;;;;;;;;5021996;28;20053;-76
2021/08/07 04:31:00;;;;;;;60.35;19.23;;;;;;;;;;5026105;28;20033;-75
2021/08/07 04:33:26;;;;;;;57.67;20.73;;;;;;;;;;4999302;28;20048;-75
2021/08/07 04:35:51;;;;;;;60.95;20.30;;;;;;;;;;5023766;28;20549;-76
2021/08/07 04:38:18;;;;;;;47.55;21.20;;;;;;;;;;5023557;28;20387;-76
2021/08/07 04:40:44;;;;;;;57.88;20.40;;;;;;;;;;5022975;28;20028;-76
2021/08/07 04:43:09;;;;;;;55.08;20.75;;;;;;;;;;5023872;28;20033;-75
2021/08/07 04:45:34;;;;;;;68.93;22.05;;;;;;;;;;5018726;28;20038;-75
2021/08/07 04:48:05;;;;;;;66.93;20.65;;;;;;;;;;5007416;28;20043;-76
2021/08/07 04:50:33;;;;;;;56.08;21.05;;;;;;;;;;5004878;28;20239;-76
2021/08/07 04:52:59;;;;;;;50.72;19.70;;;;;;;;;;5023997;28;20022;-75
2021/08/07 04:55:25;;;;;;;45.90;21.33;;;;;;;;;;5027236;28;20025;-75
2021/08/07 04:57:51;;;;;;;66.47;20.25;;;;;;;;;;5023609;28;20448;-75
2021/08/07 05:00:17;;;;;;;66.38;22.08;;;;;;;;;;5018351;28;20445;-75
2021/08/07 05:02:45;;;;;;;43.97;20.05;;;;;;;;;;5015067;28;20030;-74
2021/08/07 05:05:11;;;;;;;61.00;20.17;;;;;;;;;;5025816;28;20053;-76
2021/08/07 05:07:37;;;;;;;45.90;19.58;;;;;;;;;;5023285;28;20549;-75
2021/08/07 05:10:04;;;;;;;53.67;20.30;;;;;;;;;;5025921;28;20029;-75
2021/08/07 05:12:30;;;;;;;61.28;22.60;;;;;;;;;;5021474;28;20045;-75
2021/08/07 05:14:56;;;;;;;65.20;23.27;;;;;;;;;;5024755;28;20777;-76
2021/08/07 05:17:23;;;;;;;71.57;23.85;;;;;;;;;;5018009;28;20108;-75
2021/08/07 05:19:49;;;;;;;58.60;21.50;;;;;;;;;;5022880;28;20540;-76
2021/08/07 05:22:14;;;;;;;62.42;22.35;;;;;;;;;;5005540;28;20041;-75
2021/08/07 05:24:40;;;;;;;52.40;22.55;;;;;;;;;;5011052;28;20483;-75
2021/08/07 05:27:05;;;;;;;68.53;22.73;;;;;;;;;;4989251;28;20037;-75
2021/08/07 05:29:31;;;;;;;60.20;23.27;;;;;;;;;;5024500;28;20065;-76
2021/08/07 05:31:56;;;;;;;59.05;21.60;;;;;;;;;;5020203;28;20132;-75
2021/08/07 05:34:21;;;;;;;61.00;22.00;;;;;;;;;;5006964;28;20482;-76
2021/08/07 05:36:47;;;;;;;61.85;20.42;;;;;;;;;;5018275;28;20418;-75
2021/08/07 05:39:13;;;;;;;60.40;22.60;;;;;;;;;;5012980;28;20033;-75
2021/08/07 05:41:38;;;;;;;62.45;23.27;;;;;;;;;;5018447;28;20030;-75
2021/08/07 05:44:04;;;;;;;60.28;21.35;;;;;;;;;;5006627;28;20052;-75
2021/08/07 05:46:29;;;;;;;57.75;20.90;;;;;;;;;;5017402;28;20022;-76
2021/08/07 05:48:56;;;;;;;63.05;21.48;;;;;;;;;;5025079;28;20520;-75
2021/08/07 05:51:21;;;;;;;66.15;20.98;;;;;;;;;;5013753;28;20116;-76
2021/08/07 05:53:47;;;;;;;57.35;20.35;;;;;;;;;;5014481;28;20116;-75
2021/08/07 05:56:13;;;;;;;61.97;19.73;;;;;;;;;;5015318;28;20088;-75
2021/08/07 05:58:38;;;;;;;53.88;21.23;;;;;;;;;;5015768;28;20033;-75
2021/08/07 06:01:05;;;;;;;62.97;23.50;;;;;;;;;;5022157;28;20120;-76
2021/08/07 06:03:31;;;;;;;50.65;21.67;;;;;;;;;;5021998;28;20029;-75
2021/08/07 06:05:56;;;;;;;57.80;21.20;;;;;;;;;;5007434;28;20506;-75
2021/08/07 06:08:21;;;;;;;61.28;21.27;;;;;;;;;;5018462;28;20037;-77
2021/08/07 06:10:47;;;;;;;66.82;18.92;;;;;;;;;;5024390;28;20068;-74
2021/08/07 06:13:12;;;;;;;66.13;21.88;;;;;;;;;;5018839;28;20264;-74
2021/08/07 06:15:38;;;;;;;59.63;19.92;;;;;;;;;;4998437;28;20040;-75
2021/08/07 06:18:03;;;;;;;55.95;19.95;;;;;;;;;;5016023;28;20042;-74
2021/08/07 06:20:29;;;;;;;59.28;22.38;;;;;;;;;;5015072;28;20032;-75
2021/08/07 06:22:55;;;;;;;61.33;20.05;;;;;;;;;;5014777;28;20033;-75
2021/08/07 06:25:21;;;;;;;88.43;21.83;;;;;;;;;;5020301;28;20552;-75
2021/08/07 06:27:52;;;;;;;61.92;20.70;;;;;;;;;;5015164;28;20406;-74
2021/08/07 06:30:18;;;;;;;66.93;21.08;;;;;;;;;;5019853;28;21464;-76
2021/08/07 06:32:43;;;;;;;58.33;20.77;;;;;;;;;;5019508;28;20056;-75
2021/08/07 06:35:09;;;;;;;62.72;19.48;;;;;;;;;;5024808;28;20037;-75
2021/08/07 06:37:35;;;;;;;76.53;21.17;;;;;;;;;;5016367;28;20554;-75
2021/08/07 06:40:00;;;;;;;50.08;18.77;;;;;;;;;;5020233;28;20604;-76
2021/08/07 06:42:26;;;;;;;54.67;18.90;;;;;;;;;;4986442;28;20119;-75
2021/08/07 06:44:51;;;;;;;60.30;20.65;;;;;;;;;;5021094;28;20579;-74
2021/08/07 06:47:17;;;;;;;64.40;18.55;;;;;;;;;;5023321;28;20064;-75
2021/08/07 06:49:42;;;;;;;75.85;19.30;;;;;;;;;;5017770;28;20079;-76
2021/08/07 06:52:08;;;;;;;52.97;18.90;;;;;;;;;;5025061;28;20029;-74
2021/08/07 06:54:33;;;;;;;58.03;18.02;;;;;;;;;;5000927;28;20077;-74
2021/08/07 06:56:59;;;;;;;57.83;17.83;;;;;;;;;;5023181;28;20104;-73
2021/08/07 06:59:24;;;;;;;54.05;16.40;;;;;;;;;;5000337;28;20113;-74
2021/08/07 07:01:49;;;;;;;70.93;18.17;;;;;;;;;;5019566;28;20034;-75
2021/08/07 07:04:15;;;;;;;48.47;18.15;;;;;;;;;;5018450;28;20044;-75
2021/08/07 07:06:41;;;;;;;56.50;18.48;;;;;;;;;;4999180;28;20029;-74
2021/08/07 07:09:06;;;;;;;61.17;17.05;;;;;;;;;;5018978;28;20067;-74
2021/08/07 07:11:31;;;;;;;55.72;18.02;;;;;;;;;;5017273;28;20045;-74
2021/08/07 07:13:57;;;;;;;62.30;17.63;;;;;;;;;;5022651;28;20033;-75
2021/08/07 07:16:23;;;;;;;53.28;16.40;;;;;;;;;;5001233;28;20033;-74
2021/08/07 07:18:48;;;;;;;49.83;15.02;;;;;;;;;;5016145;28;20033;-76
2021/08/07 07:21:13;;;;;;;53.53;17.23;;;;;;;;;;5006283;28;20030;-74
2021/08/07 07:23:39;;;;;;;43.25;16.15;;;;;;;;;;5003460;28;20033;-75
2021/08/07 07:26:04;;;;;;;38.65;14.45;;;;;;;;;;5015860;28;20026;-75
2021/08/07 07:28:30;;;;;;;47.47;16.70;;;;;;;;;;5018213;28;20671;-75
2021/08/07 07:30:55;;;;;;;49.53;13.23;;;;;;;;;;5005834;28;20034;-75
2021/08/07 07:33:21;;;;;;;38.20;13.73;;;;;;;;;;5021722;28;20112;-75
2021/08/07 07:35:46;;;;;;;38.30;13.70;;;;;;;;;;5010104;28;20033;-74
2021/08/07 07:38:12;;;;;;;37.47;14.50;;;;;;;;;;5018282;28;20099;-75
2021/08/07 07:40:37;;;;;;;44.88;13.70;;;;;;;;;;5018165;28;20034;-74
2021/08/07 07:43:03;;;;;;;44.45;13.77;;;;;;;;;;5019918;28;20032;-75
2021/08/07 07:45:29;;;;;;;37.15;13.65;;;;;;;;;;5018343;28;20113;-75
2021/08/07 07:47:54;;;;;;;26.42;12.27;;;;;;;;;;4984942;28;20136;-75
2021/08/07 07:50:20;;;;;;;39.67;11.10;;;;;;;;;;5012484;28;20035;-75
2021/08/07 07:52:46;;;;;;;38.30;12.40;;;;;;;;;;5022002;28;20037;-76
2021/08/07 07:55:12;;;;;;;36.17;13.77;;;;;;;;;;5003529;28;20060;-75
2021/08/07 07:57:37;;;;;;;37.47;12.75;;;;;;;;;;5024994;28;20033;-75
2021/08/07 08:00:05;;;;;;;31.77;11.07;;;;;;;;;;5003510;28;20037;-75
2021/08/07 08:02:30;;;;;;;32.95;12.10;;;;;;;;;;5018128;28;20238;-74
2021/08/07 08:04:55;;;;;;;43.67;11.98;;;;;;;;;;5019401;28;20033;-75
2021/08/07 08:07:21;;;;;;;51.17;12.57;;;;;;;;;;5009660;28;20033;-75
2021/08/07 08:09:46;;;;;;;26.40;10.88;;;;;;;;;;5003041;28;20038;-75
2021/08/07 08:12:12;;;;;;;30.52;10.27;;;;;;;;;;5020150;28;20049;-77
2021/08/07 08:14:37;;;;;;;26.75;9.30;;;;;;;;;;5022088;28;20083;-76
2021/08/07 08:17:03;;;;;;;28.50;9.50;;;;;;;;;;4992848;28;20132;-75
2021/08/07 08:19:29;;;;;;;22.13;8.95;;;;;;;;;;5022788;28;20029;-75
2021/08/07 08:21:54;;;;;;;25.52;10.57;;;;;;;;;;5023970;28;20643;-76
2021/08/07 08:24:20;;;;;;;18.38;9.02;;;;;;;;;;5020869;28;20026;-75
2021/08/07 08:26:45;;;;;;;26.42;9.68;;;;;;;;;;5007929;28;20690;-74
2021/08/07 08:29:11;;;;;;;30.67;9.45;;;;;;;;;;5025213;28;20040;-75
2021/08/07 08:31:36;;;;;;;29.17;8.55;;;;;;;;;;5026571;28;20033;-75
2021/08/07 08:34:02;;;;;;;22.88;9.00;;;;;;;;;;5022282;28;20033;-74
2021/08/07 08:36:28;;;;;;;24.13;8.48;;;;;;;;;;5008013;28;20060;-75
2021/08/07 08:38:53;;;;;;;29.25;9.02;;;;;;;;;;5019024;28;20029;-76
2021/08/07 08:41:19;;;;;;;25.40;8.43;;;;;;;;;;4998679;28;20018;-74
2021/08/07 08:43:46;;;;;;;26.40;8.10;;;;;;;;;;5023129;28;20026;-73
2021/08/07 08:46:13;;;;;;;24.90;8.40;;;;;;;;;;5027033;28;20056;-75
2021/08/07 08:48:39;;;;;;;27.05;8.43;;;;;;;;;;5021231;28;20053;-75
2021/08/07 08:51:43;;;;;;;25.10;8.73;;;;;;;;;;5005342;28;20048;-74
2021/08/07 08:54:08;;;;;;;18.77;7.35;;;;;;;;;;5003620;28;20064;-74
2021/08/07 08:56:35;;;;;;;22.00;7.97;;;;;;;;;;5022615;28;20618;-74
2021/08/07 08:59:02;;;;;;;16.77;6.57;;;;;;;;;;5014208;28;20057;-74
2021/08/07 09:01:28;;;;;;;21.00;7.38;;;;;;;;;;5022632;28;20018;-75
2021/08/07 09:03:53;;;;;;;24.13;7.07;;;;;;;;;;5014667;28;20038;-74
2021/08/07 09:06:19;;;;;;;27.02;9.65;;;;;;;;;;5022167;28;20037;-74
2021/08/07 09:08:59;;;;;;;30.27;9.00;;;;;;;;;;5024968;28;20125;-73
2021/08/07 09:11:24;;;;;;;29.38;8.05;;;;;;;;;;5020189;28;20049;-74
2021/08/07 09:13:51;;;;;;;18.88;6.38;;;;;;;;;;5005351;28;20033;-76
2021/08/07 09:16:16;;;;;;;31.25;8.15;;;;;;;;;;5022504;28;20525;-73
2021/08/07 09:18:42;;;;;;;27.20;7.07;;;;;;;;;;5002741;28;20069;-74
2021/08/07 09:21:15;;;;;;;26.27;7.30;;;;;;;;;;5015305;28;20403;-74
2021/08/07 09:23:42;;;;;;;22.85;6.43;;;;;;;;;;5018246;28;20029;-76
2021/08/07 09:26:12;;;;;;;19.77;6.65;;;;;;;;;;5017110;28;20391;-75
2021/08/07 09:28:55;;;;;;;23.08;6.32;;;;;;;;;;5021132;28;20504;-73
2021/08/07 09:31:22;;;;;;;19.05;6.18;;;;;;;;;;5016070;28;20517;-74
2021/08/07 09:34:17;;;;;;;24.33;6.57;;;;;;;;;;5024340;28;20117;-73
2021/08/07 09:36:53;;;;;;;19.15;6.72;;;;;;;;;;5020949;28;20049;-73
2021/08/07 09:39:41;;;;;;;16.48;5.35;;;;;;;;;;5022937;28;20021;-75
2021/08/07 09:42:07;;;;;;;12.98;4.70;;;;;;;;;;5018929;28;20104;-72
2021/08/07 09:44:32;;;;;;;13.88;4.20;;;;;;;;;;5019691;28;20113;-73
2021/08/07 09:47:06;;;;;;;15.57;4.95;;;;;;;;;;5017935;28;20036;-74
2021/08/07 09:49:40;;;;;;;16.00;4.50;;;;;;;;;;5021085;28;20033;-74
2021/08/07 09:52:06;;;;;;;16.92;4.57;;;;;;;;;;5018411;28;20041;-74
2021/08/07 09:54:40;;;;;;;15.85;4.00;;;;;;;;;;5021620;28;20025;-73
2021/08/07 09:57:08;;;;;;;16.00;4.45;;;;;;;;;;5017072;28;20557;-75
2021/08/07 09:59:45;;;;;;;23.85;4.30;;;;;;;;;;5018164;28;20627;-74
2021/08/07 10:02:31;;;;;;;20.35;5.05;;;;;;;;;;5017699;28;20730;-74
2021/08/07 10:04:57;;;;;;;18.50;3.85;;;;;;;;;;5016156;28;20029;-73
2021/08/07 10:07:23;;;;;;;15.43;4.43;;;;;;;;;;5021290;28;20038;-74
2021/08/07 10:09:49;;;;;;;18.85;4.63;;;;;;;;;;5005872;28;20030;-74
2021/08/07 10:12:15;;;;;;;20.02;4.20;;;;;;;;;;5020598;28;20041;-73
2021/08/07 10:14:42;;;;;;;15.50;5.25;;;;;;;;;;5013600;28;20542;-75
2021/08/07 10:17:10;;;;;;;27.80;6.05;;;;;;;;;;5013644;28;20108;-73
2021/08/07 10:19:40;;;;;;;14.48;5.55;;;;;;;;;;5016142;28;20018;-74
2021/08/07 10:22:07;;;;;;;16.67;5.75;;;;;;;;;;5018372;28;20087;-73
2021/08/07 10:24:37;;;;;;;27.33;6.15;;;;;;;;;;5022578;28;20746;-74
2021/08/07 10:27:03;;;;;;;17.95;5.93;;;;;;;;;;5023799;28;20037;-73
2021/08/07 10:29:33;;;;;;;24.75;6.65;;;;;;;;;;5022189;28;20428;-74
2021/08/07 10:31:59;;;;;;;23.38;6.80;;;;;;;;;;5009884;28;20037;-75
2021/08/07 10:34:25;;;;;;;20.70;7.03;;;;;;;;;;5002898;28;20041;-74
2021/08/07 10:36:50;;;;;;;18.02;6.40;;;;;;;;;;5024458;28;20044;-73
2021/08/07 10:39:16;;;;;;;18.20;6.13;;;;;;;;;;4995184;28;20442;-74
2021/08/07 10:41:42;;;;;;;18.02;6.25;;;;;;;;;;5018485;28;20033;-73
2021/08/07 10:44:10;;;;;;;21.90;7.30;;;;;;;;;;5022594;28;20037;-73
2021/08/07 10:46:36;;;;;;;19.70;6.93;;;;;;;;;;5017411;28;20475;-77
2021/08/07 10:49:02;;;;;;;22.73;7.95;;;;;;;;;;5016257;28;20434;-72
2021/08/07 10:51:29;;;;;;;18.80;5.70;;;;;;;;;;5020181;28;20021;-73
2021/08/07 10:54:00;;;;;;;26.40;6.25;;;;;;;;;;5015708;28;20026;-73
2021/08/07 10:56:25;;;;;;;22.75;7.38;;;;;;;;;;5014347;28;20034;-75
2021/08/07 10:58:51;;;;;;;16.27;5.82;;;;;;;;;;5023315;28;20068;-72
2021/08/07 11:01:23;;;;;;;17.42;5.90;;;;;;;;;;5020189;28;20551;-74
2021/08/07 11:04:01;;;;;;;;;;;;;;;;;;5017722;28;20029;-75
2021/08/07 11:06:39;;;;;;;15.02;5.18;;;;;;;;;;5028438;28;19967;-73
2021/08/07 11:09:19;;;;;;;16.73;5.15;;;;;;;;;;5022465;28;20033;-72
2021/08/07 11:11:46;;;;;;;8.30;4.05;;;;;;;;;;5022136;28;20072;-74
2021/08/07 11:14:24;;;;;;;19.15;6.05;;;;;;;;;;5018892;28;20051;-74
2021/08/07 11:17:05;;;;;;;16.08;5.15;;;;;;;;;;5016440;28;20037;-73
2021/08/07 11:20:04;;;;;;;16.10;4.57;;;;;;;;;;5014881;28;20144;-73
2021/08/07 11:22:32;;;;;;;17.95;5.35;;;;;;;;;;5019824;28;20536;-75
2021/08/07 11:25:10;;;;;;;23.42;5.43;;;;;;;;;;5024446;28;20469;-73
2021/08/07 11:27:44;;;;;;;26.00;6.10;;;;;;;;;;5011283;28;20030;-75
2021/08/07 11:30:19;;;;;;;15.52;6.25;;;;;;;;;;5020880;28;20079;-74
2021/08/07 11:33:09;;;;;;;27.40;8.00;;;;;;;;;;5016220;28;20438;-76
2021/08/07 11:38:18;;;;;;;15.55;5.38;;;;;;;;;;5019581;28;20379;-74
2021/08/07 11:40:45;;;;;;;13.55;5.88;;;;;;;;;;5014756;28;20028;-75
2021/08/07 11:43:19;;;;;;;19.75;5.65;;;;;;;;;;5014909;28;20042;-74
2021/08/07 11:46:05;;;;;;;19.83;4.65;;;;;;;;;;5018922;28;20108;-74
2021/08/07 11:48:33;;;;;;;18.38;5.32;;;;;;;;;;5022136;28;20037;-75
2021/08/07 11:51:10;;;;;;;20.90;5.10;;;;;;;;;;5021466;28;20514;-74
2021/08/07 11:53:40;;;;;;;16.75;5.78;;;;;;;;;;5020096;28;20033;-74
2021/08/07 11:56:08;;;;;;;16.95;5.32;;;;;;;;;;5022233;28;20041;-75
2021/08/07 11:58:42;;;;;;;18.77;4.90;;;;;;;;;;5024088;28;20029;-75
2021/08/07 12:01:08;;;;;;;18.85;6.20;;;;;;;;;;5025953;28;20680;-75
2021/08/07 12:03:45;;;;;;;25.45;5.88;;;;;;;;;;5023670;28;20082;-74
2021/08/07 12:06:11;;;;;;;14.98;5.32;;;;;;;;;;5023528;28;20034;-75
2021/08/07 12:08:37;;;;;;;14.48;5.90;;;;;;;;;;5026997;28;20124;-75
2021/08/07 12:11:08;;;;;;;18.95;5.60;;;;;;;;;;5023575;28;20136;-75
2021/08/07 12:13:34;;;;;;;18.27;4.88;;;;;;;;;;5022538;28;20017;-73
2021/08/07 12:16:01;;;;;;;29.23;6.85;;;;;;;;;;5026405;28;20029;-74
2021/08/07 12:18:40;;;;;;;25.40;6.07;;;;;;;;;;5027535;28;20047;-73
2021/08/07 12:21:06;;;;;;;21.85;6.13;;;;;;;;;;5025206;28;20099;-75
2021/08/07 12:23:58;;;;;;;22.25;5.40;;;;;;;;;;5021124;28;20030;-75
2021/08/07 12:26:27;;;;;;;23.80;5.78;;;;;;;;;;5016058;28;20037;-73
2021/08/07 12:29:04;;;;;;;25.13;6.72;;;;;;;;;;5026148;28;20128;-74
2021/08/07 12:31:56;;;;;;;26.23;6.60;;;;;;;;;;5021826;28;20034;-75
2021/08/07 12:34:33;;;;;;;19.90;6.80;;;;;;;;;;5022757;28;20072;-73
2021/08/07 12:37:10;;;;;;;20.30;5.65;;;;;;;;;;5024213;28;20083;-76
2021/08/07 12:39:40;;;;;;;18.25;5.40;;;;;;;;;;5020367;28;20022;-73
2021/08/07 12:42:07;;;;;;;15.93;4.47;;;;;;;;;;5021392;28;20482;-74
2021/08/07 12:44:32;;;;;;;18.80;5.05;;;;;;;;;;5023641;28;20387;-77
2021/08/07 12:46:58;;;;;;;19.50;5.22;;;;;;;;;;5017899;28;20032;-73
2021/08/07 12:49:35;;;;;;;17.23;4.20;;;;;;;;;;5018981;28;20029;-74
2021/08/07 12:52:20;;;;;;;11.02;4.82;;;;;;;;;;5023596;28;20037;-75
2021/08/07 12:55:07;;;;;;;15.48;4.07;;;;;;;;;;5024004;28;20129;-74
2021/08/07 12:57:33;;;;;;;15.55;3.85;;;;;;;;;;5020633;28;20083;-73
2021/08/07 12:59:58;;;;;;;11.40;3.20;;;;;;;;;;5005726;28;20025;-74
2021/08/07 13:02:27;;;;;;;9.82;3.10;;;;;;;;;;5021157;28;20033;-74
2021/08/07 13:04:56;;;;;;;7.43;3.17;;;;;;;;;;5022468;28;20040;-76
2021/08/07 13:07:37;;;;;;;6.25;2.72;;;;;;;;;;5022367;28;20786;-73
2021/08/07 13:10:39;;;;;;;5.50;2.40;;;;;;;;;;5020326;28;20025;-76
2021/08/07 13:13:04;;;;;;;9.07;2.33;;;;;;;;;;4962905;28;20066;-74
2021/08/07 13:15:30;;;;;;;6.18;2.70;;;;;;;;;;5001262;28;21493;-74
2021/08/07 13:17:56;;;;;;;9.88;3.03;;;;;;;;;;5021645;28;20574;-74
2021/08/07 13:20:44;;;;;;;8.25;3.20;;;;;;;;;;5021663;28;20025;-75
2021/08/07 13:23:11;;;;;;;8.48;3.45;;;;;;;;;;5019743;28;20052;-74
2021/08/07 13:25:37;;;;;;;7.88;3.30;;;;;;;;;;4987960;28;20033;-76
2021/08/07 13:28:08;;;;;;;9.27;3.13;;;;;;;;;;5023367;28;20021;-77
2021/08/07 13:30:53;;;;;;;6.40;3.05;;;;;;;;;;5015663;28;20030;-76
2021/08/07 13:33:31;;;;;;;13.20;3.20;;;;;;;;;;5020948;28;20524;-75
2021/08/07 13:35:58;;;;;;;7.72;3.15;;;;;;;;;;5020023;28;20116;-75
2021/08/07 13:38:25;;;;;;;13.73;3.15;;;;;;;;;;5017414;28;20104;-73
2021/08/07 13:40:51;;;;;;;11.50;3.30;;;;;;;;;;5024790;28;20033;-75
2021/08/07 13:43:16;;;;;;;11.45;3.53;;;;;;;;;;5021490;28;20042;-73
2021/08/07 13:45:44;;;;;;;8.38;3.28;;;;;;;;;;5014835;28;20396;-73
2021/08/07 13:48:11;;;;;;;13.80;4.15;;;;;;;;;;5021414;28;20033;-73
2021/08/07 13:50:36;;;;;;;8.05;3.47;;;;;;;;;;5004521;28;20033;-75
2021/08/07 13:53:02;;;;;;;7.82;3.63;;;;;;;;;;5017116;28;20033;-75
2021/08/07 13:55:28;;;;;;;11.65;3.80;;;;;;;;;;5021150;28;20025;-77
2021/08/07 13:57:54;;;;;;;10.38;4.00;;;;;;;;;;5022431;28;20102;-77
2021/08/07 14:00:19;;;;;;;11.57;4.57;;;;;;;;;;5021673;28;20499;-76
2021/08/07 14:02:45;;;;;;;11.20;4.80;;;;;;;;;;5013528;28;20053;-77
2021/08/07 14:05:10;;;;;;;18.40;5.43;;;;;;;;;;5020900;28;20034;-78
2021/08/07 14:07:36;;;;;;;19.65;5.60;;;;;;;;;;5018153;28;20041;-75
2021/08/07 14:10:01;;;;;;;15.10;5.78;;;;;;;;;;5007526;28;20049;-77
2021/08/07 14:12:27;;;;;;;25.55;6.38;;;;;;;;;;5022304;28;20438;-76
2021/08/07 14:14:52;;;;;;;16.15;6.50;;;;;;;;;;5021269;28;20520;-78
2021/08/07 14:17:18;;;;;;;22.27;6.22;;;;;;;;;;5016159;28;20025;-75
2021/08/07 14:19:43;;;;;;;15.48;5.82;;;;;;;;;;5005616;28;20064;-77
2021/08/07 14:22:09;;;;;;;17.85;4.80;;;;;;;;;;5017232;28;20040;-74
2021/08/07 14:24:34;;;;;;;13.70;4.72;;;;;;;;;;5014940;28;20028;-79
2021/08/07 14:27:00;;;;;;;16.60;4.85;;;;;;;;;;4986033;28;20133;-74
2021/08/07 14:29:25;;;;;;;11.15;3.75;;;;;;;;;;5020722;28;20060;-74
2021/08/07 14:31:51;;;;;;;14.88;4.80;;;;;;;;;;5024425;28;20092;-77
2021/08/07 14:34:17;;;;;;;9.52;3.80;;;;;;;;;;5020767;28;20044;-75